sensor_id;sensor_type;location;lat;lon;timestamp;P1;durP1;ratioP1;P2;durP2;ratioP2
47856;SDS011;33618;49.972;8.242;2023-04-06T00:00:04;9.75;;;6.20;;
47856;SDS011;33618;49.972;8.242;2023-04-06T00:02:35;14.20;;;6.80;;
47856;SDS011;33618;49.972;8.242;2023-04-06T00:05:03;10.48;;;5.70;;
47856;SDS011;33618;49.972;8.242;2023-04-06T00:07:32;7.80;;;6.07;;
47856;SDS011;33618;49.972;8.242;2023-04-06T00:10:00;7.25;;;6.35;;
47856;SDS011;33618;49.972;8.242;2023-04-06T00:12:28;7.90;;;6.28;;
47856;SDS011;33618;49.972;8.242;2023-04-06T00:14:56;8.18;;;6.13;;
47856;SDS011;33618;49.972;8.242;2023-04-06T00:17:23;10.48;;;6.32;;
47856;SDS011;33618;49.972;8.242;2023-04-06T00:19:51;9.32;;;6.18;;
47856;SDS011;33618;49.972;8.242;2023-04-06T00:22:19;10.70;;;6.28;;
47856;SDS011;33618;49.972;8.242;2023-04-06T00:24:47;7.93;;;6.20;;
47856;SDS011;33618;49.972;8.242;2023-04-06T00:27:15;8.13;;;6.75;;
47856;SDS011;33618;49.972;8.242;2023-04-06T00:29:43;7.75;;;6.40;;
47856;SDS011;33618;49.972;8.242;2023-04-06T00:32:12;9.48;;;6.18;;
47856;SDS011;33618;49.972;8.242;2023-04-06T00:34:39;8.95;;;6.30;;
47856;SDS011;33618;49.972;8.242;2023-04-06T00:37:07;7.88;;;6.30;;
47856;SDS011;33618;49.972;8.242;2023-04-06T00:39:35;10.05;;;6.45;;
47856;SDS011;33618;49.972;8.242;2023-04-06T00:42:07;9.25;;;6.07;;
47856;SDS011;33618;49.972;8.242;2023-04-06T01:26:59;9.40;;;6.50;;
47856;SDS011;33618;49.972;8.242;2023-04-06T01:29:27;9.68;;;6.13;;
47856;SDS011;33618;49.972;8.242;2023-04-06T01:31:54;9.05;;;6.43;;
47856;SDS011;33618;49.972;8.242;2023-04-06T01:34:21;9.60;;;6.47;;
47856;SDS011;33618;49.972;8.242;2023-04-06T01:36:48;10.38;;;6.32;;
47856;SDS011;33618;49.972;8.242;2023-04-06T01:39:15;7.50;;;6.38;;
47856;SDS011;33618;49.972;8.242;2023-04-06T01:41:42;10.82;;;6.38;;
47856;SDS011;33618;49.972;8.242;2023-04-06T01:44:09;9.85;;;6.55;;
47856;SDS011;33618;49.972;8.242;2023-04-06T01:46:36;10.18;;;6.28;;
47856;SDS011;33618;49.972;8.242;2023-04-06T01:49:03;9.45;;;6.60;;
47856;SDS011;33618;49.972;8.242;2023-04-06T01:51:30;8.68;;;6.43;;
47856;SDS011;33618;49.972;8.242;2023-04-06T01:53:57;10.60;;;6.78;;
47856;SDS011;33618;49.972;8.242;2023-04-06T01:56:23;9.30;;;6.00;;
47856;SDS011;33618;49.972;8.242;2023-04-06T01:58:51;10.60;;;6.68;;
47856;SDS011;33618;49.972;8.242;2023-04-06T02:01:18;10.23;;;6.65;;
47856;SDS011;33618;49.972;8.242;2023-04-06T02:03:45;9.48;;;6.70;;
47856;SDS011;33618;49.972;8.242;2023-04-06T02:06:11;10.00;;;6.43;;
47856;SDS011;33618;49.972;8.242;2023-04-06T02:08:38;11.10;;;6.70;;
47856;SDS011;33618;49.972;8.242;2023-04-06T02:11:05;10.70;;;6.50;;
47856;SDS011;33618;49.972;8.242;2023-04-06T02:13:32;8.70;;;6.60;;
47856;SDS011;33618;49.972;8.242;2023-04-06T02:15:59;9.35;;;7.03;;
47856;SDS011;33618;49.972;8.242;2023-04-06T02:18:26;10.65;;;6.90;;
47856;SDS011;33618;49.972;8.242;2023-04-06T02:20:54;10.23;;;6.57;;
47856;SDS011;33618;49.972;8.242;2023-04-06T02:23:21;10.18;;;6.95;;
47856;SDS011;33618;49.972;8.242;2023-04-06T02:25:48;10.05;;;6.85;;
47856;SDS011;33618;49.972;8.242;2023-04-06T02:28:15;8.43;;;6.75;;
47856;SDS011;33618;49.972;8.242;2023-04-06T02:30:42;9.88;;;6.90;;
47856;SDS011;33618;49.972;8.242;2023-04-06T02:33:09;10.32;;;6.78;;
47856;SDS011;33618;49.972;8.242;2023-04-06T02:35:36;8.98;;;6.15;;
47856;SDS011;33618;49.972;8.242;2023-04-06T02:38:03;9.52;;;6.55;;
47856;SDS011;33618;49.972;8.242;2023-04-06T02:40:29;11.45;;;6.93;;
47856;SDS011;33618;49.972;8.242;2023-04-06T02:42:56;11.30;;;7.30;;
47856;SDS011;33618;49.972;8.242;2023-04-06T02:45:23;10.20;;;6.55;;
47856;SDS011;33618;49.972;8.242;2023-04-06T02:47:50;11.45;;;7.20;;
47856;SDS011;33618;49.972;8.242;2023-04-06T02:50:17;8.68;;;6.57;;
47856;SDS011;33618;49.972;8.242;2023-04-06T02:52:44;14.05;;;6.80;;
47856;SDS011;33618;49.972;8.242;2023-04-06T02:55:11;9.52;;;6.90;;
47856;SDS011;33618;49.972;8.242;2023-04-06T02:57:38;13.30;;;7.35;;
47856;SDS011;33618;49.972;8.242;2023-04-06T03:00:06;9.27;;;6.72;;
47856;SDS011;33618;49.972;8.242;2023-04-06T03:02:33;8.38;;;6.53;;
47856;SDS011;33618;49.972;8.242;2023-04-06T03:05:00;10.70;;;6.85;;
47856;SDS011;33618;49.972;8.242;2023-04-06T03:07:27;9.82;;;6.47;;
47856;SDS011;33618;49.972;8.242;2023-04-06T03:09:54;13.02;;;6.85;;
47856;SDS011;33618;49.972;8.242;2023-04-06T03:12:21;10.00;;;6.60;;
47856;SDS011;33618;49.972;8.242;2023-04-06T03:14:48;9.95;;;7.40;;
47856;SDS011;33618;49.972;8.242;2023-04-06T03:17:15;9.02;;;6.65;;
47856;SDS011;33618;49.972;8.242;2023-04-06T03:19:41;12.32;;;7.55;;
47856;SDS011;33618;49.972;8.242;2023-04-06T03:22:08;11.23;;;7.07;;
47856;SDS011;33618;49.972;8.242;2023-04-06T03:24:35;10.88;;;6.60;;
47856;SDS011;33618;49.972;8.242;2023-04-06T03:27:02;8.50;;;6.50;;
47856;SDS011;33618;49.972;8.242;2023-04-06T03:29:29;7.22;;;6.32;;
47856;SDS011;33618;49.972;8.242;2023-04-06T03:31:56;11.05;;;7.43;;
47856;SDS011;33618;49.972;8.242;2023-04-06T03:34:22;10.98;;;7.47;;
47856;SDS011;33618;49.972;8.242;2023-04-06T03:36:49;11.73;;;7.00;;
47856;SDS011;33618;49.972;8.242;2023-04-06T03:39:36;10.45;;;6.47;;
47856;SDS011;33618;49.972;8.242;2023-04-06T03:42:03;10.40;;;7.20;;
47856;SDS011;33618;49.972;8.242;2023-04-06T03:44:30;9.90;;;6.63;;
47856;SDS011;33618;49.972;8.242;2023-04-06T03:46:57;10.80;;;6.85;;
47856;SDS011;33618;49.972;8.242;2023-04-06T03:49:24;9.07;;;6.78;;
47856;SDS011;33618;49.972;8.242;2023-04-06T03:51:51;11.63;;;7.45;;
47856;SDS011;33618;49.972;8.242;2023-04-06T03:54:18;11.75;;;6.95;;
47856;SDS011;33618;49.972;8.242;2023-04-06T03:56:45;12.13;;;7.00;;
47856;SDS011;33618;49.972;8.242;2023-04-06T03:59:12;9.25;;;6.82;;
47856;SDS011;33618;49.972;8.242;2023-04-06T04:01:39;12.55;;;7.50;;
47856;SDS011;33618;49.972;8.242;2023-04-06T04:04:06;13.13;;;7.32;;
47856;SDS011;33618;49.972;8.242;2023-04-06T04:06:33;10.88;;;7.22;;
47856;SDS011;33618;49.972;8.242;2023-04-06T04:09:00;9.07;;;6.95;;
47856;SDS011;33618;49.972;8.242;2023-04-06T04:11:26;10.38;;;7.28;;
47856;SDS011;33618;49.972;8.242;2023-04-06T04:13:53;12.80;;;7.55;;
47856;SDS011;33618;49.972;8.242;2023-04-06T04:16:20;9.80;;;7.10;;
47856;SDS011;33618;49.972;8.242;2023-04-06T04:18:47;15.95;;;7.75;;
47856;SDS011;33618;49.972;8.242;2023-04-06T04:21:15;12.00;;;7.82;;
47856;SDS011;33618;49.972;8.242;2023-04-06T04:23:41;13.38;;;7.22;;
47856;SDS011;33618;49.972;8.242;2023-04-06T04:26:08;12.80;;;7.55;;
47856;SDS011;33618;49.972;8.242;2023-04-06T04:28:35;11.43;;;7.53;;
47856;SDS011;33618;49.972;8.242;2023-04-06T04:31:02;12.73;;;7.50;;
47856;SDS011;33618;49.972;8.242;2023-04-06T04:33:28;9.82;;;7.30;;
47856;SDS011;33618;49.972;8.242;2023-04-06T04:35:55;17.63;;;7.40;;
47856;SDS011;33618;49.972;8.242;2023-04-06T04:38:22;14.02;;;7.63;;
47856;SDS011;33618;49.972;8.242;2023-04-06T04:40:49;13.73;;;7.85;;
47856;SDS011;33618;49.972;8.242;2023-04-06T04:43:16;12.07;;;7.60;;
47856;SDS011;33618;49.972;8.242;2023-04-06T04:45:43;11.32;;;7.88;;
47856;SDS011;33618;49.972;8.242;2023-04-06T04:48:10;13.23;;;8.50;;
47856;SDS011;33618;49.972;8.242;2023-04-06T04:50:37;12.55;;;7.90;;
47856;SDS011;33618;49.972;8.242;2023-04-06T04:53:03;12.70;;;7.57;;
47856;SDS011;33618;49.972;8.242;2023-04-06T04:55:33;12.82;;;7.70;;
47856;SDS011;33618;49.972;8.242;2023-04-06T04:58:00;13.30;;;8.15;;
47856;SDS011;33618;49.972;8.242;2023-04-06T05:00:28;14.23;;;8.25;;
47856;SDS011;33618;49.972;8.242;2023-04-06T05:02:55;15.02;;;8.35;;
47856;SDS011;33618;49.972;8.242;2023-04-06T05:05:22;15.77;;;7.95;;
47856;SDS011;33618;49.972;8.242;2023-04-06T05:07:49;15.27;;;8.32;;
47856;SDS011;33618;49.972;8.242;2023-04-06T05:10:16;15.45;;;7.55;;
47856;SDS011;33618;49.972;8.242;2023-04-06T05:12:42;21.38;;;8.63;;
47856;SDS011;33618;49.972;8.242;2023-04-06T05:15:09;11.27;;;7.47;;
47856;SDS011;33618;49.972;8.242;2023-04-06T05:17:36;12.73;;;7.32;;
47856;SDS011;33618;49.972;8.242;2023-04-06T05:20:04;9.88;;;7.28;;
47856;SDS011;33618;49.972;8.242;2023-04-06T05:22:31;14.55;;;8.18;;
47856;SDS011;33618;49.972;8.242;2023-04-06T05:24:58;15.63;;;7.72;;
47856;SDS011;33618;49.972;8.242;2023-04-06T05:27:27;14.48;;;7.78;;
47856;SDS011;33618;49.972;8.242;2023-04-06T05:29:54;11.02;;;7.35;;
47856;SDS011;33618;49.972;8.242;2023-04-06T05:32:23;12.23;;;7.72;;
47856;SDS011;33618;49.972;8.242;2023-04-06T05:34:50;14.95;;;7.50;;
47856;SDS011;33618;49.972;8.242;2023-04-06T05:37:17;15.98;;;8.18;;
47856;SDS011;33618;49.972;8.242;2023-04-06T05:39:44;11.90;;;7.88;;
47856;SDS011;33618;49.972;8.242;2023-04-06T05:42:11;18.00;;;9.95;;
47856;SDS011;33618;49.972;8.242;2023-04-06T05:44:38;17.95;;;8.80;;
47856;SDS011;33618;49.972;8.242;2023-04-06T05:47:05;15.25;;;8.32;;
47856;SDS011;33618;49.972;8.242;2023-04-06T05:49:32;14.35;;;8.00;;
47856;SDS011;33618;49.972;8.242;2023-04-06T05:51:59;13.57;;;8.13;;
47856;SDS011;33618;49.972;8.242;2023-04-06T05:54:26;13.52;;;8.30;;
47856;SDS011;33618;49.972;8.242;2023-04-06T05:56:53;14.80;;;8.07;;
47856;SDS011;33618;49.972;8.242;2023-04-06T05:59:20;13.68;;;8.63;;
47856;SDS011;33618;49.972;8.242;2023-04-06T06:01:47;13.93;;;8.25;;
47856;SDS011;33618;49.972;8.242;2023-04-06T06:04:13;17.33;;;9.60;;
47856;SDS011;33618;49.972;8.242;2023-04-06T06:06:40;17.23;;;8.93;;
47856;SDS011;33618;49.972;8.242;2023-04-06T06:09:07;15.50;;;9.38;;
47856;SDS011;33618;49.972;8.242;2023-04-06T06:11:34;17.08;;;8.75;;
47856;SDS011;33618;49.972;8.242;2023-04-06T06:14:01;15.20;;;9.48;;
47856;SDS011;33618;49.972;8.242;2023-04-06T06:16:28;13.60;;;9.32;;
47856;SDS011;33618;49.972;8.242;2023-04-06T06:18:55;19.17;;;9.23;;
47856;SDS011;33618;49.972;8.242;2023-04-06T06:21:22;20.23;;;10.18;;
47856;SDS011;33618;49.972;8.242;2023-04-06T06:23:48;15.45;;;8.88;;
47856;SDS011;33618;49.972;8.242;2023-04-06T06:26:16;16.52;;;9.27;;
47856;SDS011;33618;49.972;8.242;2023-04-06T06:28:43;13.65;;;8.80;;
47856;SDS011;33618;49.972;8.242;2023-04-06T06:31:10;12.52;;;8.57;;
47856;SDS011;33618;49.972;8.242;2023-04-06T06:33:37;18.17;;;8.32;;
47856;SDS011;33618;49.972;8.242;2023-04-06T06:36:04;14.35;;;8.15;;
47856;SDS011;33618;49.972;8.242;2023-04-06T06:38:31;14.55;;;8.48;;
47856;SDS011;33618;49.972;8.242;2023-04-06T06:40:58;14.55;;;7.80;;
47856;SDS011;33618;49.972;8.242;2023-04-06T06:43:25;17.80;;;7.82;;
47856;SDS011;33618;49.972;8.242;2023-04-06T06:45:52;18.75;;;8.60;;
47856;SDS011;33618;49.972;8.242;2023-04-06T06:48:19;15.13;;;8.10;;
47856;SDS011;33618;49.972;8.242;2023-04-06T06:50:47;12.90;;;7.78;;
47856;SDS011;33618;49.972;8.242;2023-04-06T06:53:14;20.13;;;8.18;;
47856;SDS011;33618;49.972;8.242;2023-04-06T06:55:41;13.38;;;8.35;;
47856;SDS011;33618;49.972;8.242;2023-04-06T06:58:10;11.52;;;8.20;;
47856;SDS011;33618;49.972;8.242;2023-04-06T07:00:37;15.48;;;8.27;;
47856;SDS011;33618;49.972;8.242;2023-04-06T07:03:04;18.75;;;8.07;;
47856;SDS011;33618;49.972;8.242;2023-04-06T07:05:31;10.85;;;7.07;;
47856;SDS011;33618;49.972;8.242;2023-04-06T07:07:59;11.20;;;7.82;;
47856;SDS011;33618;49.972;8.242;2023-04-06T07:10:26;16.63;;;8.13;;
47856;SDS011;33618;49.972;8.242;2023-04-06T07:12:53;14.40;;;7.53;;
47856;SDS011;33618;49.972;8.242;2023-04-06T07:15:21;16.40;;;7.85;;
47856;SDS011;33618;49.972;8.242;2023-04-06T07:17:47;10.85;;;7.47;;
47856;SDS011;33618;49.972;8.242;2023-04-06T07:20:14;17.25;;;7.80;;
47856;SDS011;33618;49.972;8.242;2023-04-06T07:22:42;15.50;;;7.90;;
47856;SDS011;33618;49.972;8.242;2023-04-06T07:25:13;13.90;;;7.95;;
47856;SDS011;33618;49.972;8.242;2023-04-06T07:27:40;13.52;;;7.72;;
47856;SDS011;33618;49.972;8.242;2023-04-06T07:30:07;11.20;;;7.25;;
47856;SDS011;33618;49.972;8.242;2023-04-06T07:32:34;9.27;;;7.32;;
47856;SDS011;33618;49.972;8.242;2023-04-06T07:35:03;13.60;;;7.75;;
47856;SDS011;33618;49.972;8.242;2023-04-06T07:37:30;15.25;;;8.00;;
47856;SDS011;33618;49.972;8.242;2023-04-06T07:39:57;11.32;;;7.78;;
47856;SDS011;33618;49.972;8.242;2023-04-06T07:42:24;11.07;;;7.57;;
47856;SDS011;33618;49.972;8.242;2023-04-06T07:44:51;14.68;;;7.95;;
47856;SDS011;33618;49.972;8.242;2023-04-06T07:47:18;13.25;;;7.80;;
47856;SDS011;33618;49.972;8.242;2023-04-06T07:49:44;13.05;;;8.05;;
47856;SDS011;33618;49.972;8.242;2023-04-06T07:52:11;18.33;;;7.72;;
47856;SDS011;33618;49.972;8.242;2023-04-06T07:54:40;13.32;;;8.35;;
47856;SDS011;33618;49.972;8.242;2023-04-06T07:57:07;14.65;;;8.02;;
47856;SDS011;33618;49.972;8.242;2023-04-06T07:59:34;15.30;;;7.97;;
47856;SDS011;33618;49.972;8.242;2023-04-06T08:02:01;13.13;;;8.00;;
47856;SDS011;33618;49.972;8.242;2023-04-06T08:04:28;11.90;;;7.90;;
47856;SDS011;33618;49.972;8.242;2023-04-06T08:06:55;11.80;;;7.78;;
47856;SDS011;33618;49.972;8.242;2023-04-06T08:09:22;12.77;;;7.55;;
47856;SDS011;33618;49.972;8.242;2023-04-06T08:11:49;9.63;;;7.03;;
47856;SDS011;33618;49.972;8.242;2023-04-06T08:14:16;9.48;;;6.47;;
47856;SDS011;33618;49.972;8.242;2023-04-06T08:16:43;12.55;;;6.32;;
47856;SDS011;33618;49.972;8.242;2023-04-06T08:19:10;11.85;;;6.03;;
47856;SDS011;33618;49.972;8.242;2023-04-06T08:21:37;11.68;;;6.88;;
47856;SDS011;33618;49.972;8.242;2023-04-06T08:24:05;9.63;;;6.68;;
47856;SDS011;33618;49.972;8.242;2023-04-06T08:26:33;8.18;;;6.68;;
47856;SDS011;33618;49.972;8.242;2023-04-06T08:29:00;8.98;;;6.57;;
47856;SDS011;33618;49.972;8.242;2023-04-06T08:31:27;10.57;;;7.20;;
47856;SDS011;33618;49.972;8.242;2023-04-06T08:33:54;10.20;;;6.95;;
47856;SDS011;33618;49.972;8.242;2023-04-06T08:36:21;10.43;;;7.32;;
47856;SDS011;33618;49.972;8.242;2023-04-06T08:38:49;11.80;;;7.15;;
47856;SDS011;33618;49.972;8.242;2023-04-06T08:41:16;9.32;;;7.88;;
47856;SDS011;33618;49.972;8.242;2023-04-06T08:43:46;14.20;;;7.97;;
47856;SDS011;33618;49.972;8.242;2023-04-06T08:46:22;12.75;;;7.32;;
47856;SDS011;33618;49.972;8.242;2023-04-06T08:48:59;12.13;;;7.18;;
47856;SDS011;33618;49.972;8.242;2023-04-06T08:51:28;11.45;;;7.15;;
47856;SDS011;33618;49.972;8.242;2023-04-06T08:53:57;10.27;;;7.10;;
47856;SDS011;33618;49.972;8.242;2023-04-06T08:56:25;10.10;;;7.00;;
47856;SDS011;33618;49.972;8.242;2023-04-06T08:58:54;9.43;;;7.15;;
47856;SDS011;33618;49.972;8.242;2023-04-06T09:01:26;10.35;;;7.38;;
47856;SDS011;33618;49.972;8.242;2023-04-06T09:03:55;8.88;;;7.13;;
47856;SDS011;33618;49.972;8.242;2023-04-06T09:06:31;9.68;;;7.40;;
47856;SDS011;33618;49.972;8.242;2023-04-06T09:08:58;9.18;;;7.13;;
47856;SDS011;33618;49.972;8.242;2023-04-06T09:11:25;11.45;;;7.57;;
47856;SDS011;33618;49.972;8.242;2023-04-06T09:13:53;9.77;;;7.55;;
47856;SDS011;33618;49.972;8.242;2023-04-06T09:16:22;8.68;;;7.22;;
47856;SDS011;33618;49.972;8.242;2023-04-06T09:18:54;9.18;;;7.38;;
47856;SDS011;33618;49.972;8.242;2023-04-06T09:21:31;14.35;;;7.25;;
47856;SDS011;33618;49.972;8.242;2023-04-06T09:24:02;9.73;;;7.22;;
47856;SDS011;33618;49.972;8.242;2023-04-06T09:26:30;9.40;;;7.07;;
47856;SDS011;33618;49.972;8.242;2023-04-06T09:28:59;9.10;;;7.20;;
47856;SDS011;33618;49.972;8.242;2023-04-06T09:31:28;9.23;;;7.00;;
47856;SDS011;33618;49.972;8.242;2023-04-06T09:33:59;10.77;;;7.15;;
47856;SDS011;33618;49.972;8.242;2023-04-06T09:36:30;7.80;;;6.97;;
47856;SDS011;33618;49.972;8.242;2023-04-06T09:38:59;7.68;;;6.90;;
47856;SDS011;33618;49.972;8.242;2023-04-06T09:41:33;8.57;;;7.25;;
47856;SDS011;33618;49.972;8.242;2023-04-06T09:44:05;9.73;;;7.90;;
47856;SDS011;33618;49.972;8.242;2023-04-06T09:46:40;9.43;;;7.68;;
47856;SDS011;33618;49.972;8.242;2023-04-06T09:49:28;8.88;;;7.30;;
47856;SDS011;33618;49.972;8.242;2023-04-06T09:51:59;9.45;;;7.53;;
47856;SDS011;33618;49.972;8.242;2023-04-06T09:54:31;10.57;;;7.53;;
47856;SDS011;33618;49.972;8.242;2023-04-06T09:57:01;10.57;;;7.50;;
47856;SDS011;33618;49.972;8.242;2023-04-06T10:02:16;9.38;;;7.43;;
47856;SDS011;33618;49.972;8.242;2023-04-06T10:05:13;9.48;;;7.40;;
47856;SDS011;33618;49.972;8.242;2023-04-06T10:07:47;10.48;;;7.88;;
47856;SDS011;33618;49.972;8.242;2023-04-06T10:10:26;9.70;;;7.50;;
47856;SDS011;33618;49.972;8.242;2023-04-06T10:12:55;9.45;;;7.60;;
47856;SDS011;33618;49.972;8.242;2023-04-06T10:15:22;11.77;;;7.90;;
47856;SDS011;33618;49.972;8.242;2023-04-06T10:17:50;10.43;;;8.05;;
47856;SDS011;33618;49.972;8.242;2023-04-06T10:22:59;11.10;;;7.65;;
47856;SDS011;33618;49.972;8.242;2023-04-06T10:25:27;8.60;;;7.32;;
47856;SDS011;33618;49.972;8.242;2023-04-06T10:28:01;8.98;;;7.68;;
47856;SDS011;33618;49.972;8.242;2023-04-06T10:30:37;8.88;;;7.75;;
47856;SDS011;33618;49.972;8.242;2023-04-06T10:33:12;10.48;;;7.63;;
47856;SDS011;33618;49.972;8.242;2023-04-06T10:35:41;11.55;;;8.80;;
47856;SDS011;33618;49.972;8.242;2023-04-06T10:38:08;8.68;;;7.63;;
47856;SDS011;33618;49.972;8.242;2023-04-06T10:40:36;12.98;;;7.82;;
47856;SDS011;33618;49.972;8.242;2023-04-06T10:43:07;12.75;;;8.38;;
47856;SDS011;33618;49.972;8.242;2023-04-06T10:45:34;12.18;;;8.02;;
47856;SDS011;33618;49.972;8.242;2023-04-06T10:48:19;10.80;;;7.95;;
47856;SDS011;33618;49.972;8.242;2023-04-06T10:50:47;9.88;;;7.80;;
47856;SDS011;33618;49.972;8.242;2023-04-06T10:53:25;12.65;;;8.10;;
47856;SDS011;33618;49.972;8.242;2023-04-06T10:55:54;11.23;;;8.25;;
47856;SDS011;33618;49.972;8.242;2023-04-06T10:58:26;13.82;;;8.93;;
47856;SDS011;33618;49.972;8.242;2023-04-06T11:00:54;13.02;;;8.52;;
47856;SDS011;33618;49.972;8.242;2023-04-06T11:03:22;13.88;;;8.57;;
47856;SDS011;33618;49.972;8.242;2023-04-06T11:05:49;11.35;;;8.48;;
47856;SDS011;33618;49.972;8.242;2023-04-06T11:11:06;10.93;;;8.10;;
47856;SDS011;33618;49.972;8.242;2023-04-06T11:13:45;12.65;;;8.75;;
47856;SDS011;33618;49.972;8.242;2023-04-06T11:16:16;13.18;;;8.38;;
47856;SDS011;33618;49.972;8.242;2023-04-06T11:18:54;12.68;;;9.13;;
47856;SDS011;33618;49.972;8.242;2023-04-06T11:21:33;10.73;;;8.57;;
47856;SDS011;33618;49.972;8.242;2023-04-06T11:26:38;14.15;;;9.07;;
47856;SDS011;33618;49.972;8.242;2023-04-06T11:29:07;10.45;;;8.30;;
47856;SDS011;33618;49.972;8.242;2023-04-06T11:31:41;14.05;;;8.73;;
47856;SDS011;33618;49.972;8.242;2023-04-06T11:34:15;13.35;;;8.70;;
47856;SDS011;33618;49.972;8.242;2023-04-06T11:36:44;13.95;;;8.40;;
47856;SDS011;33618;49.972;8.242;2023-04-06T11:39:13;13.13;;;8.65;;
47856;SDS011;33618;49.972;8.242;2023-04-06T11:41:48;15.98;;;8.43;;
47856;SDS011;33618;49.972;8.242;2023-04-06T11:44:26;13.20;;;7.82;;
47856;SDS011;33618;49.972;8.242;2023-04-06T11:46:56;11.77;;;8.27;;
47856;SDS011;33618;49.972;8.242;2023-04-06T11:49:28;12.05;;;7.88;;
47856;SDS011;33618;49.972;8.242;2023-04-06T11:51:59;12.48;;;8.57;;
47856;SDS011;33618;49.972;8.242;2023-04-06T11:54:30;15.40;;;9.05;;
47856;SDS011;33618;49.972;8.242;2023-04-06T11:56:57;10.63;;;7.50;;
47856;SDS011;33618;49.972;8.242;2023-04-06T11:59:24;10.77;;;7.38;;
47856;SDS011;33618;49.972;8.242;2023-04-06T12:01:51;8.80;;;7.22;;
47856;SDS011;33618;49.972;8.242;2023-04-06T12:04:19;10.60;;;7.22;;
47856;SDS011;33618;49.972;8.242;2023-04-06T12:06:47;11.60;;;7.93;;
47856;SDS011;33618;49.972;8.242;2023-04-06T12:09:16;11.77;;;8.15;;
47856;SDS011;33618;49.972;8.242;2023-04-06T12:11:46;11.60;;;8.35;;
47856;SDS011;33618;49.972;8.242;2023-04-06T12:14:13;11.38;;;7.78;;
47856;SDS011;33618;49.972;8.242;2023-04-06T12:16:41;11.15;;;8.32;;
47856;SDS011;33618;49.972;8.242;2023-04-06T12:19:08;14.60;;;7.90;;
47856;SDS011;33618;49.972;8.242;2023-04-06T12:21:35;11.20;;;8.38;;
47856;SDS011;33618;49.972;8.242;2023-04-06T12:24:05;13.68;;;9.13;;
47856;SDS011;33618;49.972;8.242;2023-04-06T12:26:32;11.35;;;8.13;;
47856;SDS011;33618;49.972;8.242;2023-04-06T12:28:59;14.38;;;8.63;;
47856;SDS011;33618;49.972;8.242;2023-04-06T12:31:34;12.65;;;8.20;;
47856;SDS011;33618;49.972;8.242;2023-04-06T12:34:02;10.52;;;7.85;;
47856;SDS011;33618;49.972;8.242;2023-04-06T12:36:29;9.45;;;8.00;;
47856;SDS011;33618;49.972;8.242;2023-04-06T12:38:57;11.80;;;8.25;;
47856;SDS011;33618;49.972;8.242;2023-04-06T12:41:27;13.60;;;7.90;;
47856;SDS011;33618;49.972;8.242;2023-04-06T12:43:54;11.25;;;8.15;;
47856;SDS011;33618;49.972;8.242;2023-04-06T12:46:22;9.52;;;7.78;;
47856;SDS011;33618;49.972;8.242;2023-04-06T12:48:50;10.93;;;8.48;;
47856;SDS011;33618;49.972;8.242;2023-04-06T12:51:20;10.60;;;7.70;;
47856;SDS011;33618;49.972;8.242;2023-04-06T12:53:47;9.48;;;6.68;;
47856;SDS011;33618;49.972;8.242;2023-04-06T12:56:15;9.82;;;7.85;;
47856;SDS011;33618;49.972;8.242;2023-04-06T12:58:44;10.27;;;7.32;;
47856;SDS011;33618;49.972;8.242;2023-04-06T13:01:11;9.73;;;7.28;;
47856;SDS011;33618;49.972;8.242;2023-04-06T13:03:40;8.25;;;7.03;;
47856;SDS011;33618;49.972;8.242;2023-04-06T13:06:07;11.45;;;6.90;;
47856;SDS011;33618;49.972;8.242;2023-04-06T13:08:35;9.48;;;7.25;;
47856;SDS011;33618;49.972;8.242;2023-04-06T13:11:03;11.70;;;6.88;;
47856;SDS011;33618;49.972;8.242;2023-04-06T13:13:31;8.40;;;6.50;;
47856;SDS011;33618;49.972;8.242;2023-04-06T13:16:01;9.43;;;7.10;;
47856;SDS011;33618;49.972;8.242;2023-04-06T13:18:30;11.88;;;7.40;;
47856;SDS011;33618;49.972;8.242;2023-04-06T13:20:58;10.93;;;7.10;;
47856;SDS011;33618;49.972;8.242;2023-04-06T13:23:28;9.23;;;6.65;;
47856;SDS011;33618;49.972;8.242;2023-04-06T13:26:01;10.73;;;6.65;;
47856;SDS011;33618;49.972;8.242;2023-04-06T13:28:30;9.65;;;7.38;;
47856;SDS011;33618;49.972;8.242;2023-04-06T13:30:58;10.25;;;6.20;;
47856;SDS011;33618;49.972;8.242;2023-04-06T13:33:29;8.27;;;6.38;;
47856;SDS011;33618;49.972;8.242;2023-04-06T13:35:57;9.85;;;6.30;;
47856;SDS011;33618;49.972;8.242;2023-04-06T13:38:24;6.90;;;6.20;;
47856;SDS011;33618;49.972;8.242;2023-04-06T13:40:51;7.60;;;6.00;;
47856;SDS011;33618;49.972;8.242;2023-04-06T13:43:18;10.25;;;6.25;;
47856;SDS011;33618;49.972;8.242;2023-04-06T13:45:53;8.70;;;6.53;;
47856;SDS011;33618;49.972;8.242;2023-04-06T13:48:26;9.63;;;5.82;;
47856;SDS011;33618;49.972;8.242;2023-04-06T13:50:52;7.03;;;5.72;;
47856;SDS011;33618;49.972;8.242;2023-04-06T13:53:20;9.68;;;5.70;;
47856;SDS011;33618;49.972;8.242;2023-04-06T13:55:53;7.22;;;5.78;;
47856;SDS011;33618;49.972;8.242;2023-04-06T13:58:21;7.10;;;5.45;;
47856;SDS011;33618;49.972;8.242;2023-04-06T14:00:48;8.02;;;6.32;;
47856;SDS011;33618;49.972;8.242;2023-04-06T14:03:15;8.65;;;6.20;;
47856;SDS011;33618;49.972;8.242;2023-04-06T14:05:42;10.85;;;5.97;;
47856;SDS011;33618;49.972;8.242;2023-04-06T14:08:08;9.13;;;6.35;;
47856;SDS011;33618;49.972;8.242;2023-04-06T14:10:39;8.50;;;5.90;;
47856;SDS011;33618;49.972;8.242;2023-04-06T14:13:06;7.10;;;5.38;;
47856;SDS011;33618;49.972;8.242;2023-04-06T14:15:34;5.03;;;4.47;;
47856;SDS011;33618;49.972;8.242;2023-04-06T14:18:01;5.45;;;3.95;;
47856;SDS011;33618;49.972;8.242;2023-04-06T14:20:30;5.03;;;3.72;;
47856;SDS011;33618;49.972;8.242;2023-04-06T14:23:02;6.07;;;4.07;;
47856;SDS011;33618;49.972;8.242;2023-04-06T14:25:30;7.53;;;4.30;;
47856;SDS011;33618;49.972;8.242;2023-04-06T14:28:01;6.00;;;4.07;;
47856;SDS011;33618;49.972;8.242;2023-04-06T14:30:29;5.03;;;4.05;;
47856;SDS011;33618;49.972;8.242;2023-04-06T14:32:57;5.10;;;4.05;;
47856;SDS011;33618;49.972;8.242;2023-04-06T14:35:25;5.18;;;4.25;;
47856;SDS011;33618;49.972;8.242;2023-04-06T14:37:54;5.57;;;3.83;;
47856;SDS011;33618;49.972;8.242;2023-04-06T14:40:23;6.97;;;3.90;;
47856;SDS011;33618;49.972;8.242;2023-04-06T14:42:50;4.07;;;3.67;;
47856;SDS011;33618;49.972;8.242;2023-04-06T14:45:18;6.65;;;3.88;;
47856;SDS011;33618;49.972;8.242;2023-04-06T14:47:47;5.18;;;3.70;;
47856;SDS011;33618;49.972;8.242;2023-04-06T14:50:14;4.65;;;3.80;;
47856;SDS011;33618;49.972;8.242;2023-04-06T14:52:41;4.75;;;3.92;;
47856;SDS011;33618;49.972;8.242;2023-04-06T14:55:08;5.40;;;4.43;;
47856;SDS011;33618;49.972;8.242;2023-04-06T14:57:35;5.57;;;4.80;;
47856;SDS011;33618;49.972;8.242;2023-04-06T15:00:03;6.97;;;5.10;;
47856;SDS011;33618;49.972;8.242;2023-04-06T15:02:32;5.70;;;4.78;;
47856;SDS011;33618;49.972;8.242;2023-04-06T15:04:59;8.07;;;5.53;;
47856;SDS011;33618;49.972;8.242;2023-04-06T15:07:26;7.35;;;5.18;;
47856;SDS011;33618;49.972;8.242;2023-04-06T15:09:53;6.57;;;4.93;;
47856;SDS011;33618;49.972;8.242;2023-04-06T15:12:20;7.18;;;5.35;;
47856;SDS011;33618;49.972;8.242;2023-04-06T15:14:47;9.82;;;5.75;;
47856;SDS011;33618;49.972;8.242;2023-04-06T15:17:13;6.25;;;5.05;;
47856;SDS011;33618;49.972;8.242;2023-04-06T15:19:40;7.22;;;4.95;;
47856;SDS011;33618;49.972;8.242;2023-04-06T15:22:07;7.70;;;5.35;;
47856;SDS011;33618;49.972;8.242;2023-04-06T15:24:34;9.90;;;5.43;;
47856;SDS011;33618;49.972;8.242;2023-04-06T15:27:00;6.40;;;5.32;;
47856;SDS011;33618;49.972;8.242;2023-04-06T15:29:29;7.57;;;4.97;;
47856;SDS011;33618;49.972;8.242;2023-04-06T15:31:57;5.93;;;4.88;;
47856;SDS011;33618;49.972;8.242;2023-04-06T15:34:24;7.30;;;5.28;;
47856;SDS011;33618;49.972;8.242;2023-04-06T15:36:52;9.07;;;4.43;;
47856;SDS011;33618;49.972;8.242;2023-04-06T15:39:19;7.43;;;4.30;;